Time;durP1;ratioP1;P1;durP2;ratioP2;P2;SDS_P1;SDS_P2;PMS_P1;PMS_P2;Temp;Humidity;BMP_temperature;BMP_pressure;BME280_temperature;BME280_humidity;BME280_pressure;Samples;Min_cycle;Max_cycle;Signal;HPM_P1;HPM_P2
2021/10/27 00:01:12;;;;;;;8.63;2.20;;;;;;;20.02;64.53;100793.59;5032872;28;20021;-90
2021/10/27 00:03:38;;;;;;;14.18;2.53;;;;;;;19.93;64.59;100786.56;5032792;28;20055;-89
2021/10/27 00:06:04;;;;;;;13.82;2.58;;;;;;;19.99;64.61;100793.94;5032831;28;20030;-89
2021/10/27 00:08:29;;;;;;;12.18;2.08;;;;;;;20.05;64.07;100776.50;5032135;28;20052;-89
2021/10/27 00:10:54;;;;;;;12.48;2.05;;;;;;;19.99;64.50;100772.63;5032653;28;20108;-90
2021/10/27 00:13:20;;;;;;;16.17;3.00;;;;;;;19.77;64.71;100793.44;5032618;28;20396;-90
2021/10/27 00:15:45;;;;;;;10.05;1.98;;;;;;;19.97;64.29;100788.75;5032592;28;20033;-90
2021/10/27 00:18:12;;;;;;;15.93;2.10;;;;;;;20.10;63.92;100776.84;5032482;28;20063;-90
2021/10/27 00:20:37;;;;;;;16.27;2.78;;;;;;;19.90;64.42;100778.88;5032357;28;20052;-90
2021/10/27 00:23:03;;;;;;;13.43;2.50;;;;;;;19.79;64.47;100775.47;5031787;28;20079;-90
2021/10/27 00:25:28;;;;;;;14.65;1.85;;;;;;;19.86;64.52;100774.84;5032030;28;20033;-89
2021/10/27 00:27:53;;;;;;;16.05;2.00;;;;;;;20.05;63.63;100771.16;5030562;28;20067;-89
2021/10/27 00:30:19;;;;;;;12.30;1.80;;;;;;;20.16;63.58;100777.06;5032258;28;20061;-90
2021/10/27 00:32:44;;;;;;;11.80;2.53;;;;;;;20.08;63.31;100779.66;5032275;28;20033;-90
2021/10/27 00:35:09;;;;;;;17.95;3.60;;;;;;;19.90;63.85;100789.53;5032091;28;20091;-91
2021/10/27 00:37:36;;;;;;;12.60;2.13;;;;;;;19.97;63.74;100786.09;5031925;28;20044;-91
2021/10/27 00:40:03;;;;;;;13.27;2.20;;;;;;;19.91;64.31;100789.38;5032203;28;20030;-91
2021/10/27 00:42:29;;;;;;;11.10;2.28;;;;;;;20.04;63.85;100785.47;5032150;28;20033;-91
2021/10/27 00:44:54;;;;;;;9.32;1.88;;;;;;;19.98;63.68;100789.59;5032497;28;20155;-91
2021/10/27 00:47:20;;;;;;;11.80;2.33;;;;;;;20.22;62.74;100780.91;5031874;28;20029;-89
2021/10/27 00:49:46;;;;;;;13.77;1.98;;;;;;;20.13;62.74;100780.03;5031998;28;20384;-89
2021/10/27 00:52:15;;;;;;;13.38;2.13;;;;;;;20.04;63.54;100780.97;5031527;28;20034;-89
2021/10/27 00:54:43;;;;;;;10.75;1.60;;;;;;;20.06;63.27;100778.16;5031739;28;20033;-90
2021/10/27 00:57:10;;;;;;;11.63;1.85;;;;;;;19.91;63.54;100764.56;5031866;28;20029;-89
2021/10/27 00:59:41;;;;;;;14.15;2.15;;;;;;;19.92;63.12;100767.06;5030698;28;20108;-89
2021/10/27 01:02:07;;;;;;;13.40;2.10;;;;;;;19.76;63.89;100770.44;5031875;28;20148;-89
2021/10/27 01:04:33;;;;;;;11.68;1.90;;;;;;;19.86;63.79;100777.50;5031697;28;20021;-89
2021/10/27 01:06:59;;;;;;;16.45;1.80;;;;;;;20.05;63.09;100777.31;5031153;28;20029;-89
2021/10/27 01:09:25;;;;;;;17.35;2.47;;;;;;;19.95;63.23;100772.09;5031879;28;20108;-91
2021/10/27 01:11:50;;;;;;;10.02;1.90;;;;;;;20.16;62.66;100770.88;5030296;28;20120;-91
2021/10/27 01:14:16;;;;;;;9.70;1.83;;;;;;;20.13;62.88;100768.53;5031762;28;20025;-91
2021/10/27 01:16:42;;;;;;;12.45;2.05;;;;;;;20.24;62.68;100775.41;5031549;28;20116;-91
2021/10/27 01:19:08;;;;;;;16.83;2.22;;;;;;;19.99;63.07;100768.13;5031558;28;20048;-91
2021/10/27 01:21:34;;;;;;;26.10;4.47;;;;;;;19.96;63.37;100756.94;5031310;28;20476;-92
2021/10/27 01:24:01;;;;;;;8.65;1.77;;;;;;;19.92;63.57;100760.91;5031634;28;20022;-91
2021/10/27 01:26:28;;;;;;;12.93;2.17;;;;;;;20.14;63.08;100762.19;5032009;28;20437;-92
2021/10/27 01:28:54;;;;;;;14.43;1.80;;;;;;;19.86;63.84;100756.19;5031669;28;20025;-91
2021/10/27 01:31:21;;;;;;;11.70;2.38;;;;;;;19.59;64.31;100765.97;5031475;28;20468;-91
2021/10/27 01:33:47;;;;;;;14.35;2.33;;;;;;;19.64;64.46;100766.34;5031554;28;20055;-91
2021/10/27 01:36:17;;;;;;;19.20;3.33;;;;;;;19.71;64.63;100764.75;5031192;28;20026;-91
2021/10/27 01:38:42;;;;;;;13.50;1.77;;;;;;;19.97;63.48;100770.09;5031391;28;20033;-91
2021/10/27 01:41:08;;;;;;;10.38;1.83;;;;;;;19.91;63.24;100765.41;5031349;28;20033;-92
2021/10/27 01:43:55;;;;;;;11.60;2.20;;;;;;;20.11;62.83;100754.53;5031559;28;20029;-91
2021/10/27 01:46:32;;;;;;;13.18;1.85;;;;;;;19.96;63.34;100751.59;5031209;28;20488;-92
2021/10/27 01:48:58;;;;;;;13.88;2.35;;;;;;;19.62;64.12;100757.66;5031323;28;20033;-91
2021/10/27 01:51:25;;;;;;;12.13;1.60;;;;;;;19.93;63.56;100754.59;5030949;28;20036;-91
2021/10/27 01:53:51;;;;;;;10.70;1.60;;;;;;;20.05;62.76;100748.00;5031472;28;20155;-91
2021/10/27 01:56:17;;;;;;;9.20;1.35;;;;;;;19.95;63.27;100747.28;5031241;28;20471;-92
2021/10/27 01:58:42;;;;;;;5.60;1.10;;;;;;;20.26;62.17;100736.09;5031211;28;20025;-91
2021/10/27 02:01:07;;;;;;;6.03;1.48;;;;;;;19.85;63.04;100733.22;5031330;28;20040;-92
2021/10/27 02:03:33;;;;;;;12.57;1.67;;;;;;;19.97;63.01;100737.28;5031308;28;20030;-91
2021/10/27 02:05:58;;;;;;;12.75;1.90;;;;;;;19.73;63.85;100741.47;5031031;28;20037;-92
2021/10/27 02:08:24;;;;;;;7.07;1.45;;;;;;;20.23;62.14;100731.09;5031331;28;20028;-91
2021/10/27 02:10:49;;;;;;;8.88;1.50;;;;;;;20.15;62.70;100729.22;5030102;28;20060;-92
2021/10/27 02:13:15;;;;;;;7.28;1.42;;;;;;;20.04;62.94;100735.66;5031182;28;20116;-91
2021/10/27 02:15:42;;;;;;;10.23;2.30;;;;;;;19.83;63.74;100724.53;5031197;28;20064;-92
2021/10/27 02:18:07;;;;;;;13.80;1.90;;;;;;;20.05;63.06;100729.34;5031153;28;20275;-92
2021/10/27 02:20:32;;;;;;;11.25;1.30;;;;;;;20.21;62.38;100726.75;5033646;28;20210;-92
2021/10/27 02:22:58;;;;;;;7.93;1.92;;;;;;;20.00;63.40;100731.63;5034824;28;20025;-92
2021/10/27 02:25:23;;;;;;;9.95;1.48;;;;;;;20.12;63.20;100719.72;5034785;28;20120;-91
2021/10/27 02:27:49;;;;;;;9.27;1.83;;;;;;;19.74;64.22;100715.66;5034540;28;20443;-92
2021/10/27 02:30:14;;;;;;;6.45;1.45;;;;;;;19.89;63.96;100715.94;5034741;28;20453;-91
2021/10/27 02:32:40;;;;;;;11.18;1.60;;;;;;;19.93;63.69;100712.78;5034466;28;20547;-92
2021/10/27 02:35:05;;;;;;;8.60;1.60;;;;;;;19.84;64.10;100720.88;5033057;28;20433;-92
2021/10/27 02:37:31;;;;;;;13.50;2.28;;;;;;;19.72;64.47;100717.63;5034523;28;20033;-92
2021/10/27 02:39:56;;;;;;;10.32;2.22;;;;;;;19.67;64.85;100718.09;5034481;28;20025;-92
2021/10/27 02:42:22;;;;;;;15.23;2.75;;;;;;;19.86;64.28;100709.06;5033169;28;20037;-93
2021/10/27 02:44:47;;;;;;;9.20;1.38;;;;;;;19.73;64.39;100704.16;5033144;28;20068;-90
2021/10/27 02:47:13;;;;;;;8.73;1.55;;;;;;;19.65;65.24;100711.22;5034172;28;20040;-92
2021/10/27 02:49:38;;;;;;;13.13;1.70;;;;;;;19.52;65.44;100706.31;5033883;28;20475;-89
2021/10/27 02:52:04;;;;;;;6.85;1.38;;;;;;;19.50;65.26;100702.97;5032755;28;20037;-89
2021/10/27 02:54:29;;;;;;;5.20;1.35;;;;;;;19.69;65.02;100708.09;5034235;28;20025;-92
2021/10/27 02:56:54;;;;;;;4.95;0.98;;;;;;;19.71;65.10;100711.47;5033972;28;20022;-91
2021/10/27 02:59:20;;;;;;;8.98;1.17;;;;;;;19.85;64.41;100706.56;5033961;28;20495;-92
2021/10/27 03:01:45;;;;;;;5.97;0.93;;;;;;;19.46;65.47;100718.41;5033966;28;20029;-92
2021/10/27 03:04:11;;;;;;;7.50;0.90;;;;;;;19.61;64.95;100713.38;5033486;28;20361;-92
2021/10/27 03:06:36;;;;;;;6.03;1.27;;;;;;;19.96;63.95;100714.28;5034142;28;20029;-93
2021/10/27 03:09:02;;;;;;;8.98;1.58;;;;;;;20.09;63.51;100717.38;5033853;28;20033;-91
2021/10/27 03:11:27;;;;;;;11.38;1.85;;;;;;;19.70;64.62;100719.59;5033771;28;20381;-91
2021/10/27 03:13:53;;;;;;;8.85;1.42;;;;;;;19.90;64.18;100712.25;5033845;28;20025;-92
2021/10/27 03:16:18;;;;;;;7.13;1.15;;;;;;;19.92;64.36;100718.25;5033714;28;20032;-92
2021/10/27 03:18:43;;;;;;;5.32;0.90;;;;;;;19.99;63.87;100719.31;5033302;28;20044;-91
2021/10/27 03:21:09;;;;;;;9.45;1.30;;;;;;;20.06;64.25;100724.84;5033658;28;20471;-91
2021/10/27 03:23:34;;;;;;;6.65;1.13;;;;;;;19.53;65.85;100726.63;5033629;28;20022;-92
2021/10/27 03:26:00;;;;;;;3.90;0.98;;;;;;;19.87;65.24;100726.75;5033527;28;20030;-92
2021/10/27 03:28:25;;;;;;;14.90;1.58;;;;;;;19.97;65.14;100719.47;5033250;28;20488;-91
2021/10/27 03:30:50;;;;;;;6.50;1.10;;;;;;;19.80;66.27;100715.84;5033620;28;20343;-92
2021/10/27 03:33:16;;;;;;;4.53;1.00;;;;;;;19.72;67.00;100717.63;5032141;28;20391;-92
2021/10/27 03:35:41;;;;;;;4.90;1.13;;;;;;;20.03;65.97;100715.34;5033343;28;20034;-90
2021/10/27 03:38:07;;;;;;;7.13;1.15;;;;;;;19.98;66.31;100720.28;5032893;28;20034;-91
2021/10/27 03:40:32;;;;;;;7.38;1.10;;;;;;;19.55;67.41;100721.97;5033410;28;20025;-92
2021/10/27 03:42:57;;;;;;;5.63;1.08;;;;;;;19.79;66.84;100718.69;5033258;28;20030;-91
2021/10/27 03:45:23;;;;;;;5.63;1.23;;;;;;;19.90;66.58;100725.56;5033282;28;20488;-91
2021/10/27 03:47:49;;;;;;;9.25;1.58;;;;;;;19.70;67.31;100720.41;5033021;28;20025;-91
2021/10/27 03:50:14;;;;;;;3.92;0.90;;;;;;;19.59;67.28;100712.69;5033385;28;20357;-92
2021/10/27 03:52:44;;;;;;;8.50;1.10;;;;;;;19.80;66.61;100710.53;5031783;28;20022;-91
2021/10/27 03:55:10;;;;;;;3.45;0.73;;;;;;;19.60;67.10;100706.38;5032765;28;20025;-91
2021/10/27 03:57:36;;;;;;;7.68;1.45;;;;;;;19.29;67.68;100704.13;5032969;28;20025;-91
2021/10/27 04:00:04;;;;;;;6.28;0.90;;;;;;;19.53;67.16;100705.31;5033068;28;20060;-92
2021/10/27 04:02:30;;;;;;;5.45;1.00;;;;;;;19.70;66.58;100703.59;5032970;28;20057;-90
2021/10/27 04:04:55;;;;;;;4.07;0.70;;;;;;;19.61;66.83;100700.91;5033117;28;20448;-90
2021/10/27 04:07:20;;;;;;;6.97;1.00;;;;;;;19.42;67.71;100707.22;5032845;28;20417;-92
2021/10/27 04:09:46;;;;;;;6.43;1.10;;;;;;;19.64;66.49;100698.91;5032621;28;20104;-92
2021/10/27 04:12:11;;;;;;;3.40;0.95;;;;;;;19.75;66.16;100701.34;5032381;28;20491;-92
2021/10/27 04:14:37;;;;;;;12.07;0.80;;;;;;;19.44;66.94;100712.41;5032824;28;20511;-93
2021/10/27 04:17:02;;;;;;;7.18;1.15;;;;;;;19.28;67.10;100699.81;5032645;28;20415;-92
2021/10/27 04:19:28;;;;;;;6.28;1.15;;;;;;;19.61;66.34;100700.91;5032327;28;20483;-93
2021/10/27 04:21:53;;;;;;;5.20;0.90;;;;;;;19.34;66.82;100701.84;5032598;28;20079;-92
2021/10/27 04:24:19;;;;;;;6.47;0.70;;;;;;;19.35;67.07;100703.53;5032942;28;20049;-92
2021/10/27 04:26:45;;;;;;;6.38;1.38;;;;;;;19.24;66.88;100705.59;5032673;28;20041;-93
2021/10/27 04:29:10;;;;;;;11.15;1.23;;;;;;;19.36;67.16;100709.69;5031790;28;20056;-93
2021/10/27 04:31:37;;;;;;;6.05;0.85;;;;;;;19.31;67.13;100710.16;5032141;28;20467;-94
2021/10/27 04:34:02;;;;;;;5.78;1.08;;;;;;;19.46;66.14;100706.94;5032243;28;20079;-92
2021/10/27 04:36:28;;;;;;;6.72;1.00;;;;;;;19.00;67.67;100707.88;5034158;28;20449;-95
2021/10/27 04:38:53;;;;;;;8.68;1.73;;;;;;;19.25;66.72;100699.28;5043809;28;20024;-94
2021/10/27 04:41:18;;;;;;;4.43;1.00;;;;;;;19.24;66.51;100701.09;5032325;28;20025;-93
2021/10/27 04:43:44;;;;;;;7.30;1.10;;;;;;;19.26;66.45;100695.63;5031810;28;20025;-93
2021/10/27 04:46:10;;;;;;;4.75;0.90;;;;;;;19.53;65.74;100697.31;5031103;28;20030;-95
2021/10/27 04:48:36;;;;;;;7.07;1.27;;;;;;;19.33;66.16;100697.53;5032950;28;20026;-94
2021/10/27 04:51:01;;;;;;;7.43;1.70;;;;;;;18.36;68.66;100703.47;5036295;28;20502;-96
2021/10/27 04:53:26;;;;;;;10.15;1.38;;;;;;;19.25;66.35;100705.41;5046851;28;20037;-95
2021/10/27 04:55:53;;;;;;;8.43;1.15;;;;;;;19.14;66.87;100708.34;5037456;28;20418;-95
2021/10/27 04:58:18;;;;;;;8.65;1.00;;;;;;;18.71;68.07;100694.75;5032153;28;20029;-93
2021/10/27 05:00:44;;;;;;;9.68;1.88;;;;;;;18.59;68.74;100695.94;5031978;28;20032;-95
2021/10/27 05:03:10;;;;;;;4.15;1.05;;;;;;;18.69;68.00;100699.38;5039865;28;20036;-93
2021/10/27 05:05:41;;;;;;;6.40;1.42;;;;;;;18.96;67.59;100693.22;5031905;28;20017;-94
2021/10/27 05:08:07;;;;;;;11.05;1.92;;;;;;;18.90;67.70;100691.16;5033678;28;20495;-94
2021/10/27 05:10:32;;;;;;;13.45;2.22;;;;;;;18.97;67.67;100694.88;5031915;28;20029;-93
2021/10/27 05:12:57;;;;;;;7.65;1.10;;;;;;;19.28;66.67;100685.66;5048321;28;20039;-92
2021/10/27 05:15:23;;;;;;;8.95;1.40;;;;;;;19.24;66.62;100695.78;5049034;28;20059;-91
2021/10/27 05:17:48;;;;;;;7.82;1.45;;;;;;;19.33;66.55;100694.88;5032904;28;20472;-90
2021/10/27 05:20:14;;;;;;;5.93;1.27;;;;;;;19.55;65.46;100684.69;5031832;28;20025;-92
2021/10/27 05:22:40;;;;;;;7.10;1.05;;;;;;;19.33;65.83;100676.22;5048704;28;20025;-92
2021/10/27 05:25:06;;;;;;;8.45;0.85;;;;;;;19.43;65.82;100692.09;5051410;28;20021;-91
2021/10/27 05:27:32;;;;;;;7.25;1.58;;;;;;;19.28;65.93;100683.84;5051574;28;20108;-91
2021/10/27 05:29:57;;;;;;;10.82;1.60;;;;;;;19.29;66.04;100682.81;5051516;28;20024;-91
2021/10/27 05:32:24;;;;;;;6.55;1.20;;;;;;;19.01;66.11;100677.59;5051434;28;20017;-91
2021/10/27 05:34:50;;;;;;;5.97;1.60;;;;;;;19.07;66.50;100670.00;5037186;28;20056;-91
2021/10/27 05:37:15;;;;;;;7.82;1.58;;;;;;;19.08;66.22;100672.53;5033010;28;20018;-92
2021/10/27 05:39:41;;;;;;;7.70;1.65;;;;;;;18.70;67.92;100670.94;5051616;28;20091;-92
2021/10/27 05:42:10;;;;;;;12.48;1.80;;;;;;;18.73;66.86;100662.69;5051575;28;20393;-92
2021/10/27 05:44:36;;;;;;;9.52;1.38;;;;;;;19.31;65.49;100664.03;5051432;28;20021;-91
2021/10/27 05:47:01;;;;;;;6.13;1.02;;;;;;;19.26;65.45;100675.16;5049465;28;20083;-92
2021/10/27 05:52:05;;;;;;;14.87;1.23;;;;;;;19.17;65.84;100673.41;5031397;28;20060;-92
2021/10/27 05:57:14;;;;;;;7.80;1.60;;;;;;;18.99;66.11;100674.25;5040329;28;20395;-92
2021/10/27 05:59:40;;;;;;;9.10;1.08;;;;;;;18.81;66.62;100660.13;5055391;28;20025;-93
2021/10/27 06:02:05;;;;;;;8.63;1.95;;;;;;;18.63;67.38;100674.22;5055047;28;20385;-92
2021/10/27 06:04:31;;;;;;;9.48;1.85;;;;;;;18.92;66.49;100667.91;5038861;28;20021;-92
2021/10/27 06:06:56;;;;;;;8.48;1.50;;;;;;;19.09;65.85;100676.00;5035019;28;20055;-91
2021/10/27 06:09:22;;;;;;;7.78;1.42;;;;;;;19.05;66.06;100674.66;5035062;28;20533;-92
2021/10/27 06:11:47;;;;;;;7.88;1.55;;;;;;;19.13;65.78;100672.88;5038098;28;20072;-91
2021/10/27 06:14:13;;;;;;;8.50;1.35;;;;;;;19.10;65.67;100670.53;5055058;28;20063;-92
2021/10/27 06:16:39;;;;;;;7.97;1.48;;;;;;;19.03;65.85;100662.31;5054836;28;20025;-93
2021/10/27 06:19:05;;;;;;;9.05;1.63;;;;;;;19.39;64.76;100664.09;5041428;28;20179;-92
2021/10/27 06:21:31;;;;;;;13.00;1.63;;;;;;;19.17;65.47;100660.09;5034769;28;20036;-92
2021/10/27 06:23:57;;;;;;;9.77;1.40;;;;;;;19.44;64.43;100666.31;5034247;28;20029;-91
2021/10/27 06:26:23;;;;;;;11.05;1.60;;;;;;;19.25;64.68;100660.16;5036230;28;20541;-92
2021/10/27 06:29:03;;;;;;;9.20;1.58;;;;;;;18.98;65.38;100667.28;5036830;28;20026;-91
2021/10/27 06:31:35;;;;;;;9.15;1.58;;;;;;;19.44;63.86;100672.47;5034674;28;20025;-92
2021/10/27 06:39:30;;;;;;;12.05;2.40;;;;;;;19.45;64.43;100675.97;5054161;28;20052;-92
2021/10/27 06:47:44;;;;;;;6.93;1.70;;;;;;;19.50;63.64;100676.34;5008960;28;20472;-93
2021/10/27 06:50:09;;;;;;;17.75;2.50;;;;;;;19.54;63.68;100670.53;5012356;28;20045;-93
2021/10/27 06:52:35;;;;;;;10.35;1.70;;;;;;;19.17;64.32;100670.75;5031550;28;20032;-93
2021/10/27 06:55:01;;;;;;;13.55;1.92;;;;;;;19.26;64.68;100677.81;5054261;28;20449;-92
2021/10/27 06:57:27;;;;;;;12.60;1.45;;;;;;;19.46;64.17;100674.97;5053906;28;20479;-92
2021/10/27 06:59:59;;;;;;;8.57;1.70;;;;;;;19.40;64.08;100687.91;5051783;28;20029;-91
2021/10/27 07:16:58;;;;;;;7.97;1.52;;;;;;;19.08;64.23;100687.66;5030640;28;20609;-91
2021/10/27 07:19:23;;;;;;;10.55;1.67;;;;;;;19.00;65.01;100705.22;5013342;28;20053;-91
2021/10/27 07:21:49;;;;;;;13.40;2.17;;;;;;;18.91;65.39;100689.31;5012859;28;20022;-91
2021/10/27 07:24:16;;;;;;;16.40;2.25;;;;;;;19.01;64.60;100700.72;5027326;28;20057;-92
2021/10/27 07:26:42;;;;;;;8.90;1.30;;;;;;;19.20;63.63;100708.56;5008168;28;20037;-93
2021/10/27 07:29:07;;;;;;;7.85;1.60;;;;;;;19.29;63.40;100712.09;5008519;28;20113;-94
2021/10/27 07:31:33;;;;;;;7.38;1.55;;;;;;;19.21;63.38;100717.38;5008499;28;20101;-92
2021/10/27 07:34:07;;;;;;;9.77;2.00;;;;;;;19.22;63.09;100711.91;5022203;28;20029;-90
2021/10/27 07:39:52;;;;;;;6.53;1.42;;;;;;;19.26;63.26;100719.59;5022342;28;20021;-91
2021/10/27 07:42:10;;;;;;;5.30;1.30;;;;;;;19.18;63.32;100728.34;5008208;28;20080;-91
2021/10/27 07:44:36;;;;;;;5.90;1.10;;;;;;;19.43;62.95;100729.38;5015595;28;20014;-92
2021/10/27 07:47:01;;;;;;;11.02;1.60;;;;;;;19.34;63.23;100731.13;5014724;28;20029;-93
2021/10/27 07:49:27;;;;;;;6.18;1.45;;;;;;;18.88;64.45;100730.38;5008084;28;20018;-91
2021/10/27 07:51:52;;;;;;;10.60;1.50;;;;;;;18.94;64.37;100735.09;5010218;28;20096;-91
2021/10/27 07:54:18;;;;;;;10.68;1.52;;;;;;;19.30;63.27;100736.94;5017333;28;20109;-91
2021/10/27 07:56:44;;;;;;;9.85;1.92;;;;;;;19.25;63.10;100741.88;5017676;28;20053;-92
2021/10/27 07:59:11;;;;;;;13.02;2.00;;;;;;;19.20;63.30;100734.34;5028222;28;20038;-89
2021/10/27 08:01:36;;;;;;;8.60;1.33;;;;;;;19.26;63.17;100739.06;5026083;28;20022;-91
2021/10/27 08:04:02;;;;;;;10.75;1.92;;;;;;;19.10;64.19;100738.91;5027923;28;20106;-92
2021/10/27 08:06:27;;;;;;;12.43;1.85;;;;;;;19.16;63.62;100736.47;5019734;28;20030;-91
2021/10/27 08:08:54;;;;;;;11.88;1.77;;;;;;;19.36;63.42;100754.94;5017670;28;20476;-91
2021/10/27 08:11:20;;;;;;;7.90;1.55;;;;;;;19.21;63.70;100744.84;5026861;28;20032;-91
2021/10/27 08:13:45;;;;;;;11.02;1.65;;;;;;;19.25;63.61;100736.53;5026461;28;20038;-93
2021/10/27 08:16:10;;;;;;;13.70;2.17;;;;;;;19.16;63.93;100756.94;5041192;28;20194;-92
2021/10/27 08:18:36;;;;;;;10.90;2.08;;;;;;;19.62;62.73;100760.31;5029869;28;20041;-91
2021/10/27 08:21:01;;;;;;;10.05;1.50;;;;;;;19.75;62.08;100751.97;5027322;28;20053;-90
2021/10/27 08:23:31;;;;;;;12.40;1.70;;;;;;;19.74;62.31;100748.44;5027373;28;20033;-91
2021/10/27 08:25:59;;;;;;;10.88;1.40;;;;;;;19.72;62.29;100750.44;5034357;28;20496;-91
2021/10/27 08:28:38;;;;;;;9.82;2.22;;;;;;;19.68;62.46;100748.22;5031550;28;20495;-90
2021/10/27 08:31:09;;;;;;;10.07;1.55;;;;;;;19.87;62.03;100740.06;5013841;28;20056;-91
2021/10/27 08:33:46;;;;;;;10.38;1.77;;;;;;;19.71;62.53;100743.44;5014132;28;20014;-92
2021/10/27 08:36:11;;;;;;;7.40;1.50;;;;;;;19.92;61.52;100735.06;5018174;28;20069;-91
2021/10/27 08:38:37;;;;;;;7.95;2.05;;;;;;;20.08;61.06;100739.66;5018840;28;20045;-90
2021/10/27 08:41:02;;;;;;;9.43;1.67;;;;;;;19.85;61.95;100736.72;5029803;28;20117;-92
2021/10/27 08:43:29;;;;;;;9.55;1.70;;;;;;;19.94;61.82;100737.59;5023498;28;20136;-91
2021/10/27 08:45:54;;;;;;;5.70;1.60;;;;;;;19.96;61.73;100738.25;5028756;28;20030;-91
2021/10/27 08:48:21;;;;;;;6.78;1.40;;;;;;;19.80;62.39;100731.84;5034350;28;20471;-91
2021/10/27 08:50:48;;;;;;;7.60;1.25;;;;;;;19.56;62.47;100740.47;5034302;28;20108;-92
2021/10/27 08:53:16;;;;;;;4.82;1.55;;;;;;;19.98;61.71;100741.59;5034096;28;20049;-92
2021/10/27 08:55:45;;;;;;;9.90;1.58;;;;;;;20.09;61.77;100735.19;5034160;28;20498;-92
2021/10/27 08:58:15;;;;;;;10.23;1.80;;;;;;;19.83;62.11;100729.84;5029452;28;20030;-92
2021/10/27 09:01:08;;;;;;;7.10;1.40;;;;;;;19.64;63.26;100738.88;5032233;28;20025;-90
2021/10/27 09:34:06;;;;;;;7.95;1.42;;;;;;;19.97;63.69;100715.97;5033639;28;20092;-91
2021/10/27 09:56:15;;;;;;;6.55;1.08;;;;;;;20.14;62.85;100725.72;5020608;28;20132;-89
2021/10/27 10:06:29;;;;;;;6.95;1.25;;;;;;;20.38;62.23;100718.84;5016798;28;20034;-92
2021/10/27 10:08:56;;;;;;;10.57;1.38;;;;;;;19.95;63.44;100725.94;5013893;28;20026;-88
2021/10/27 10:11:26;;;;;;;7.43;1.20;;;;;;;20.08;63.03;100728.19;5020546;28;20091;-94
2021/10/27 10:13:53;;;;;;;6.68;1.20;;;;;;;19.35;64.64;100732.81;5016298;28;20053;-89
2021/10/27 10:16:19;;;;;;;8.50;1.48;;;;;;;19.94;63.38;100721.59;5017812;28;20033;-90
2021/10/27 10:18:46;;;;;;;10.35;1.33;;;;;;;19.67;64.27;100731.41;5025787;28;20033;-94
2021/10/27 10:21:28;;;;;;;12.13;2.78;;;;;;;19.79;64.46;100722.19;5020865;28;20022;-93
2021/10/27 10:24:15;;;;;;;8.15;1.58;;;;;;;19.59;64.69;100718.03;5031054;28;20552;-90
2021/10/27 10:26:42;;;;;;;9.23;1.58;;;;;;;19.87;63.78;100709.91;5032365;28;20036;-89
2021/10/27 10:29:08;;;;;;;9.05;1.90;;;;;;;20.04;63.27;100709.00;5026020;28;20109;-93
2021/10/27 10:31:36;;;;;;;8.18;1.60;;;;;;;19.97;63.06;100710.63;5027206;28;20104;-89
2021/10/27 10:34:09;;;;;;;16.38;1.63;;;;;;;20.13;63.16;100710.72;5025835;28;20064;-89
2021/10/27 10:36:40;;;;;;;11.63;2.28;;;;;;;20.47;62.25;100707.19;5019825;28;20034;-90
2021/10/27 10:39:32;;;;;;;10.75;1.70;;;;;;;20.00;62.72;100710.31;5026206;28;20365;-90
2021/10/27 10:42:22;;;;;;;8.98;1.42;;;;;;;20.01;62.90;100712.81;5016930;28;20040;-89
2021/10/27 11:41:55;;;;;;;8.48;1.58;;;;;;;20.63;61.11;100700.28;5024071;28;20472;-90
2021/10/27 11:44:36;;;;;;;5.72;1.27;;;;;;;20.31;62.01;100697.28;5017187;28;20064;-89
2021/10/27 11:47:08;;;;;;;6.70;1.45;;;;;;;20.62;61.36;100693.25;5012393;28;20026;-89
2021/10/27 11:49:37;;;;;;;7.63;1.63;;;;;;;20.77;60.90;100696.97;5028605;28;20520;-88
2021/10/27 11:52:04;;;;;;;11.77;1.55;;;;;;;20.76;61.28;100697.97;5018438;28;20061;-90
2021/10/27 11:54:31;;;;;;;9.95;1.63;;;;;;;20.62;61.75;100690.59;5016505;28;21352;-86
2021/10/27 11:56:56;;;;;;;12.40;2.10;;;;;;;20.58;61.64;100698.91;5015700;28;20037;-88
2021/10/27 11:59:22;;;;;;;12.02;1.35;;;;;;;20.92;60.73;100692.66;5015659;28;20029;-87
2021/10/27 12:01:51;;;;;;;8.98;1.35;;;;;;;20.97;60.45;100692.16;5026668;28;20025;-88
2021/10/27 12:04:18;;;;;;;7.85;1.40;;;;;;;20.71;61.08;100695.78;5026533;28;20021;-86
2021/10/27 12:06:53;;;;;;;7.45;1.08;;;;;;;20.30;61.94;100689.44;5034016;28;20622;-86
2021/10/27 12:17:39;;;;;;;9.98;2.03;;;;;;;20.97;60.18;100682.31;5010522;28;20492;-87
2021/10/27 12:20:05;;;;;;;6.18;1.50;;;;;;;20.51;61.45;100692.53;5026008;28;20487;-87
2021/10/27 12:22:35;;;;;;;11.25;1.20;;;;;;;20.68;60.48;100692.63;5034160;28;20038;-89
2021/10/27 12:25:05;;;;;;;8.27;1.35;;;;;;;20.80;60.72;100676.13;5033811;28;20602;-88
2021/10/27 12:27:38;;;;;;;12.20;1.70;;;;;;;20.66;61.09;100679.44;5034319;28;20034;-84
2021/10/27 12:30:15;;;;;;;6.57;1.35;;;;;;;20.92;60.46;100679.31;5034420;28;20033;-86
2021/10/27 12:32:57;;;;;;;7.30;1.88;;;;;;;21.04;60.05;100670.97;5019292;28;20028;-87
2021/10/27 12:35:29;;;;;;;9.95;2.17;;;;;;;21.17;59.35;100676.66;5026564;28;20112;-86
2021/10/27 12:40:45;;;;;;;12.40;1.90;;;;;;;21.00;60.03;100660.63;5024078;28;20022;-86
2021/10/27 12:43:13;;;;;;;7.72;1.45;;;;;;;20.47;61.50;100653.00;5021040;28;20029;-91
2021/10/27 12:45:55;;;;;;;10.60;1.70;;;;;;;20.86;60.70;100658.63;5015997;28;20018;-92
2021/10/27 12:53:38;;;;;;;9.10;2.03;;;;;;;20.65;59.57;100650.25;5124357;23;20117;-93
2021/10/27 12:56:13;;;;;;;9.90;1.50;;;;;;;20.85;59.40;100642.78;4975449;28;20023;-92
2021/10/27 12:58:45;;;;;;;12.38;1.45;;;;;;;20.67;60.29;100651.75;4974016;28;20032;-92
2021/10/27 13:04:05;;;;;;;11.35;2.00;;;;;;;20.62;59.71;100640.75;4950184;29;20035;-93
2021/10/27 13:17:08;;;;;;;9.68;1.55;;;;;;;20.64;60.10;100638.75;4947832;29;20042;-92
2021/10/27 13:30:19;;;;;;;9.02;1.92;;;;;;;20.38;61.13;100631.66;4952603;29;20085;-92
2021/10/27 13:32:54;;;;;;;10.20;2.15;;;;;;;20.58;60.53;100618.03;4954683;28;20110;-93
2021/10/27 13:35:21;;;;;;;15.95;2.25;;;;;;;20.18;61.24;100628.44;4954596;28;20078;-94
2021/10/27 13:37:47;;;;;;;13.30;2.45;;;;;;;20.10;61.63;100624.91;4953046;28;20031;-92
2021/10/27 13:40:13;;;;;;;11.95;3.05;;;;;;;20.53;60.63;100623.03;4953722;28;20027;-92
2021/10/27 13:58:41;;;;;;;7.53;1.50;;;;;;;20.52;60.43;100602.69;4934291;29;20491;-93
2021/10/27 14:06:53;;;;;;;14.75;2.17;;;;;;;20.43;60.87;100604.50;4921014;29;20599;-93
2021/10/27 14:12:21;;;;;;;10.18;1.58;;;;;;;20.25;61.26;100596.63;4933182;29;20103;-93
2021/10/27 15:22:06;;;;;;;11.18;2.20;;;;;;;19.98;61.26;100531.94;4933510;29;20114;-88
2021/10/27 15:51:29;;;;;;;5.75;1.40;;;;;;;19.88;60.79;100519.72;4931870;29;20175;-90
2021/10/27 15:53:55;;;;;;;16.77;2.45;;;;;;;19.46;61.99;100520.53;4949279;29;20114;-91
2021/10/27 15:56:22;;;;;;;12.90;2.45;;;;;;;19.86;61.31;100519.03;4943532;28;20043;-90
2021/10/27 15:58:48;;;;;;;18.42;1.90;;;;;;;19.93;60.78;100518.25;4955031;29;20072;-92
2021/10/27 16:01:13;;;;;;;7.95;1.23;;;;;;;20.08;60.36;100526.41;4953722;28;20065;-90
2021/10/27 16:03:39;;;;;;;9.43;1.40;;;;;;;19.28;62.21;100510.78;4947435;29;20027;-87
2021/10/27 16:06:06;;;;;;;14.82;2.05;;;;;;;19.60;61.37;100517.25;4952632;29;20028;-88
2021/10/27 16:08:33;;;;;;;13.38;2.67;;;;;;;19.89;61.71;100505.41;4952066;29;20032;-89
2021/10/27 16:10:59;;;;;;;15.52;2.15;;;;;;;19.81;60.77;100515.03;4952113;29;20039;-86
2021/10/27 16:13:24;;;;;;;13.57;1.85;;;;;;;19.83;61.25;100506.03;4948257;29;20028;-88
2021/10/27 16:16:00;;;;;;;13.23;2.42;;;;;;;19.64;61.04;100507.94;4937868;29;20030;-88
2021/10/27 16:18:28;;;;;;;12.93;1.95;;;;;;;19.83;60.60;100512.22;4951689;29;20035;-90
2021/10/27 16:20:55;;;;;;;7.68;2.08;;;;;;;19.72;60.80;100518.66;4957133;28;20023;-89
2021/10/27 16:23:21;;;;;;;11.23;2.00;;;;;;;19.63;61.43;100511.63;4955320;28;20491;-90
2021/10/27 16:25:47;;;;;;;12.07;1.83;;;;;;;19.35;62.41;100513.66;4958137;28;20403;-91
2021/10/27 16:28:13;;;;;;;11.32;2.13;;;;;;;19.53;61.13;100494.91;4956887;28;20023;-89
2021/10/27 16:30:39;;;;;;;13.32;2.20;;;;;;;19.59;61.20;100489.81;4952487;28;20023;-91